Time;durP1;ratioP1;P1;durP2;ratioP2;P2;SDS_P1;SDS_P2;PMS_P1;PMS_P2;Temp;Humidity;BMP_temperature;BMP_pressure;BME280_temperature;BME280_humidity;BME280_pressure;Samples;Min_cycle;Max_cycle;Signal;HPM_P1;HPM_P2
2022/07/25 00:01:07;;;;;;;1.12;1.12;;;;;;;;;;1883676;75;26184;-87
2022/07/25 00:03:34;;;;;;;1.10;1.10;;;;;;;;;;1880941;75;26331;-86
2022/07/25 00:06:01;;;;;;;1.05;1.05;;;;;;;;;;1883637;74;26233;-87
2022/07/25 00:08:29;;;;;;;1.10;1.10;;;;;;;;;;1886645;75;26216;-88
2022/07/25 00:10:56;;;;;;;1.05;1.05;;;;;;;;;;1902916;75;26564;-87
2022/07/25 00:13:23;;;;;;;1.00;1.00;;;;;;;;;;1873486;75;26243;-87
2022/07/25 00:15:51;;;;;;;1.00;1.00;;;;;;;;;;1874158;75;26200;-87
2022/07/25 00:18:18;;;;;;;1.00;1.00;;;;;;;;;;1889965;75;26178;-87
2022/07/25 00:20:46;;;;;;;1.10;1.10;;;;;;;;;;1883444;75;26186;-87
2022/07/25 00:23:13;;;;;;;1.10;1.10;;;;;;;;;;1886874;75;26272;-87
2022/07/25 00:25:40;;;;;;;1.00;1.00;;;;;;;;;;1887034;76;26196;-87
2022/07/25 00:28:08;;;;;;;1.10;1.10;;;;;;;;;;1881163;75;26175;-88
2022/07/25 00:30:35;;;;;;;1.10;1.10;;;;;;;;;;1901120;75;26261;-87
2022/07/25 00:33:02;;;;;;;1.00;1.00;;;;;;;;;;1896011;75;26250;-87
2022/07/25 00:35:30;;;;;;;1.10;1.10;;;;;;;;;;1891747;73;26202;-88
2022/07/25 00:37:57;;;;;;;1.00;1.00;;;;;;;;;;1884358;76;26316;-87
2022/07/25 00:40:24;;;;;;;1.12;1.12;;;;;;;;;;1886928;75;26615;-88
2022/07/25 00:42:51;;;;;;;1.10;1.10;;;;;;;;;;1886903;76;26677;-88
2022/07/25 00:45:19;;;;;;;1.00;1.00;;;;;;;;;;1872182;75;26214;-88
2022/07/25 00:47:46;;;;;;;1.07;1.07;;;;;;;;;;1900190;75;26148;-88
2022/07/25 00:50:13;;;;;;;1.00;1.00;;;;;;;;;;1897691;75;26620;-87
2022/07/25 00:52:41;;;;;;;1.05;1.05;;;;;;;;;;1888138;75;26588;-87
2022/07/25 00:55:08;;;;;;;1.00;1.00;;;;;;;;;;1886958;75;26191;-87
2022/07/25 00:57:35;;;;;;;1.07;1.07;;;;;;;;;;1902019;75;26191;-86
2022/07/25 01:00:04;;;;;;;1.00;1.00;;;;;;;;;;1896298;76;26196;-88
2022/07/25 01:02:31;;;;;;;1.10;1.10;;;;;;;;;;1888293;75;26297;-87
2022/07/25 01:04:59;;;;;;;1.00;1.00;;;;;;;;;;1883613;75;26208;-87
2022/07/25 01:07:26;;;;;;;1.10;1.10;;;;;;;;;;1892516;75;26238;-87
2022/07/25 01:09:53;;;;;;;1.00;1.00;;;;;;;;;;1888281;75;26624;-87
2022/07/25 01:12:21;;;;;;;1.00;1.00;;;;;;;;;;1873855;75;26254;-88
2022/07/25 01:14:48;;;;;;;1.00;1.00;;;;;;;;;;1873375;75;26281;-87
2022/07/25 01:17:15;;;;;;;1.00;1.00;;;;;;;;;;1882973;75;26264;-87
2022/07/25 01:19:43;;;;;;;1.20;1.20;;;;;;;;;;1878940;75;26653;-87
2022/07/25 01:22:10;;;;;;;1.00;1.00;;;;;;;;;;1872107;75;26234;-88
2022/07/25 01:24:38;;;;;;;1.17;1.17;;;;;;;;;;1866628;75;26190;-88
2022/07/25 01:27:05;;;;;;;1.00;1.00;;;;;;;;;;1883040;74;26209;-87
2022/07/25 01:29:33;;;;;;;1.07;1.07;;;;;;;;;;1883205;75;26663;-88
2022/07/25 01:32:00;;;;;;;1.20;1.20;;;;;;;;;;1883559;75;26168;-88
2022/07/25 01:34:27;;;;;;;1.00;1.00;;;;;;;;;;1883574;75;26265;-88
2022/07/25 01:36:55;;;;;;;1.10;1.10;;;;;;;;;;1896631;75;26195;-87
2022/07/25 01:39:22;;;;;;;0.90;0.90;;;;;;;;;;1876594;75;26245;-88
2022/07/25 01:41:49;;;;;;;1.00;1.00;;;;;;;;;;1887365;75;26643;-88
2022/07/25 01:44:16;;;;;;;1.07;1.07;;;;;;;;;;1895654;75;26722;-87
2022/07/25 01:46:43;;;;;;;1.20;1.20;;;;;;;;;;1888991;75;26633;-87
2022/07/25 01:49:11;;;;;;;1.00;1.00;;;;;;;;;;1887437;75;26636;-87
2022/07/25 01:51:38;;;;;;;1.00;1.00;;;;;;;;;;1894199;76;26197;-88
2022/07/25 01:54:05;;;;;;;1.00;1.00;;;;;;;;;;1876408;75;25588;-88
2022/07/25 01:56:33;;;;;;;0.95;0.95;;;;;;;;;;1865212;76;26662;-87
2022/07/25 01:59:00;;;;;;;1.12;1.12;;;;;;;;;;1893783;75;26599;-88
2022/07/25 02:01:27;;;;;;;1.00;1.00;;;;;;;;;;1883714;75;26608;-88
2022/07/25 02:03:54;;;;;;;1.07;1.07;;;;;;;;;;1895205;75;26258;-89
2022/07/25 02:06:22;;;;;;;1.05;1.05;;;;;;;;;;1892478;76;26211;-87
2022/07/25 02:08:49;;;;;;;1.00;1.00;;;;;;;;;;1882566;76;26187;-86
2022/07/25 02:11:16;;;;;;;1.00;1.00;;;;;;;;;;1887785;75;26237;-87
2022/07/25 02:13:43;;;;;;;1.12;1.12;;;;;;;;;;1895076;75;26195;-88
2022/07/25 02:16:11;;;;;;;1.10;1.10;;;;;;;;;;1878174;76;26199;-89
2022/07/25 02:18:39;;;;;;;1.00;1.00;;;;;;;;;;1878401;75;26194;-89
2022/07/25 02:21:08;;;;;;;0.95;0.95;;;;;;;;;;1889128;75;26943;-87
2022/07/25 02:23:35;;;;;;;1.05;1.05;;;;;;;;;;1879022;74;26245;-87
2022/07/25 02:26:02;;;;;;;1.02;1.02;;;;;;;;;;1888014;75;26234;-87
2022/07/25 02:28:30;;;;;;;1.10;1.10;;;;;;;;;;1879702;75;26638;-86
2022/07/25 02:30:57;;;;;;;1.10;1.10;;;;;;;;;;1867206;75;26168;-86
2022/07/25 02:33:25;;;;;;;1.00;1.00;;;;;;;;;;1892285;75;26261;-86
2022/07/25 02:35:52;;;;;;;1.10;1.10;;;;;;;;;;1888772;74;26193;-87
2022/07/25 02:38:19;;;;;;;1.17;1.17;;;;;;;;;;1874010;75;26239;-87
2022/07/25 02:40:47;;;;;;;0.90;0.90;;;;;;;;;;1892804;75;26250;-87
2022/07/25 02:43:14;;;;;;;1.15;1.15;;;;;;;;;;1894450;75;26965;-87
2022/07/25 02:45:41;;;;;;;1.00;1.00;;;;;;;;;;1876240;75;26371;-87
2022/07/25 02:48:08;;;;;;;1.10;1.10;;;;;;;;;;1876285;75;26202;-87
2022/07/25 02:50:36;;;;;;;1.00;1.00;;;;;;;;;;1879926;75;26693;-87
2022/07/25 02:53:03;;;;;;;1.10;1.10;;;;;;;;;;1890183;75;26612;-88
2022/07/25 02:55:31;;;;;;;1.10;1.10;;;;;;;;;;1885749;75;26195;-88
2022/07/25 02:57:58;;;;;;;1.00;1.00;;;;;;;;;;1877586;75;26684;-88
2022/07/25 03:00:26;;;;;;;1.00;1.00;;;;;;;;;;1866037;75;26164;-87
2022/07/25 03:02:53;;;;;;;1.10;1.10;;;;;;;;;;1869842;75;26308;-87
2022/07/25 03:05:20;;;;;;;1.05;1.05;;;;;;;;;;1876385;75;26167;-88
2022/07/25 03:07:47;;;;;;;1.10;1.10;;;;;;;;;;1871071;75;26183;-87
2022/07/25 03:10:15;;;;;;;1.12;1.12;;;;;;;;;;1891270;75;26182;-88
2022/07/25 03:12:42;;;;;;;1.10;1.10;;;;;;;;;;1889135;75;26180;-88
2022/07/25 03:15:11;;;;;;;1.00;1.00;;;;;;;;;;1874547;75;26184;-88
2022/07/25 03:17:43;;;;;;;1.30;1.30;;;;;;;;;;1866919;75;26623;-89
2022/07/25 03:20:08;;;;;;;1.10;1.10;;;;;;;;;;1889047;75;26282;-87
2022/07/25 03:22:35;;;;;;;1.12;1.12;;;;;;;;;;1884631;75;26192;-88
2022/07/25 03:25:03;;;;;;;1.00;1.00;;;;;;;;;;1895973;75;26180;-87
2022/07/25 03:27:30;;;;;;;1.10;1.10;;;;;;;;;;1875912;75;26179;-87
2022/07/25 03:29:57;;;;;;;0.95;0.95;;;;;;;;;;1880205;75;26565;-88
2022/07/25 03:32:25;;;;;;;1.00;1.00;;;;;;;;;;1890222;75;26669;-88
2022/07/25 03:34:52;;;;;;;1.00;1.00;;;;;;;;;;1874712;75;26725;-86
2022/07/25 03:37:19;;;;;;;1.05;1.05;;;;;;;;;;1890060;76;26148;-88
2022/07/25 03:39:46;;;;;;;1.07;1.07;;;;;;;;;;1881011;75;26185;-87
2022/07/25 03:42:14;;;;;;;1.10;1.10;;;;;;;;;;1896617;75;26624;-87
2022/07/25 03:44:41;;;;;;;1.10;1.10;;;;;;;;;;1887814;75;26202;-88
2022/07/25 03:47:08;;;;;;;1.10;1.10;;;;;;;;;;1878552;75;26211;-88
2022/07/25 03:49:36;;;;;;;1.10;1.10;;;;;;;;;;1882738;75;26296;-88
2022/07/25 03:52:03;;;;;;;1.10;1.10;;;;;;;;;;1893754;76;26685;-87
2022/07/25 03:54:30;;;;;;;1.17;1.17;;;;;;;;;;1874937;75;26164;-87
2022/07/25 03:56:58;;;;;;;1.05;1.05;;;;;;;;;;1883789;75;26199;-87
2022/07/25 03:59:25;;;;;;;1.10;1.10;;;;;;;;;;1884479;75;26631;-87
2022/07/25 04:01:52;;;;;;;1.10;1.10;;;;;;;;;;1883882;75;26164;-87
2022/07/25 04:04:19;;;;;;;1.00;1.00;;;;;;;;;;1870932;76;26166;-88
2022/07/25 04:06:47;;;;;;;1.00;1.00;;;;;;;;;;1867429;75;26274;-87
2022/07/25 04:09:14;;;;;;;1.10;1.10;;;;;;;;;;1888785;75;26194;-88
2022/07/25 04:11:42;;;;;;;1.30;1.30;;;;;;;;;;1890781;75;26276;-87
2022/07/25 04:14:09;;;;;;;1.10;1.10;;;;;;;;;;1885712;75;26718;-87
2022/07/25 04:16:36;;;;;;;1.00;1.00;;;;;;;;;;1874712;76;26160;-87
2022/07/25 04:19:04;;;;;;;1.17;1.17;;;;;;;;;;1885933;75;26710;-87
2022/07/25 04:21:32;;;;;;;1.10;1.10;;;;;;;;;;1889997;75;26263;-88
2022/07/25 04:23:59;;;;;;;0.93;0.93;;;;;;;;;;1890880;76;26664;-87
2022/07/25 04:26:26;;;;;;;1.20;1.20;;;;;;;;;;1880185;75;26635;-87
2022/07/25 04:28:56;;;;;;;1.10;1.10;;;;;;;;;;1891722;75;26224;-87
2022/07/25 04:31:23;;;;;;;1.02;1.02;;;;;;;;;;1892348;75;26281;-87
2022/07/25 04:33:50;;;;;;;1.07;1.07;;;;;;;;;;1895964;75;26628;-87
2022/07/25 04:36:18;;;;;;;1.20;1.20;;;;;;;;;;1884614;75;26687;-87
2022/07/25 04:38:45;;;;;;;1.10;1.10;;;;;;;;;;1883633;75;26210;-87
2022/07/25 04:41:12;;;;;;;1.15;1.15;;;;;;;;;;1885331;75;26227;-88
2022/07/25 04:43:40;;;;;;;1.10;1.10;;;;;;;;;;1895820;75;26674;-88
2022/07/25 04:46:07;;;;;;;1.07;1.07;;;;;;;;;;1884209;75;26721;-87
2022/07/25 04:48:34;;;;;;;1.00;1.00;;;;;;;;;;1881725;75;26791;-88
2022/07/25 04:51:01;;;;;;;1.07;1.07;;;;;;;;;;1877473;75;26250;-88
2022/07/25 04:53:29;;;;;;;1.20;1.20;;;;;;;;;;1874031;76;26253;-87
2022/07/25 04:55:56;;;;;;;1.12;1.12;;;;;;;;;;1876360;75;26199;-87
2022/07/25 04:58:23;;;;;;;1.02;1.02;;;;;;;;;;1876490;75;26294;-87
2022/07/25 05:00:51;;;;;;;1.20;1.20;;;;;;;;;;1882045;75;26194;-88
2022/07/25 05:03:18;;;;;;;1.20;1.20;;;;;;;;;;1867700;75;26171;-86
2022/07/25 05:05:45;;;;;;;1.12;1.12;;;;;;;;;;1877229;75;26172;-86
2022/07/25 05:08:13;;;;;;;1.22;1.22;;;;;;;;;;1869984;75;26191;-86
2022/07/25 05:10:40;;;;;;;1.10;1.10;;;;;;;;;;1867015;76;26183;-87
2022/07/25 05:13:07;;;;;;;1.20;1.20;;;;;;;;;;1888725;75;26216;-86
2022/07/25 05:15:35;;;;;;;1.20;1.20;;;;;;;;;;1868710;76;26190;-87
2022/07/25 05:18:02;;;;;;;1.17;1.17;;;;;;;;;;1864608;76;26300;-87
2022/07/25 05:20:30;;;;;;;1.20;1.20;;;;;;;;;;1887141;75;26211;-87
2022/07/25 05:22:57;;;;;;;1.10;1.10;;;;;;;;;;1896738;75;26239;-84
2022/07/25 05:25:24;;;;;;;1.20;1.20;;;;;;;;;;1901786;73;26171;-86
2022/07/25 05:27:54;;;;;;;1.20;1.20;;;;;;;;;;1891515;73;26205;-86
2022/07/25 05:30:21;;;;;;;1.30;1.30;;;;;;;;;;1896619;73;26287;-86
2022/07/25 05:32:48;;;;;;;1.10;1.10;;;;;;;;;;1894957;74;26290;-86
2022/07/25 05:35:15;;;;;;;1.10;1.10;;;;;;;;;;1887395;74;26219;-87
2022/07/25 05:37:42;;;;;;;1.20;1.20;;;;;;;;;;1899005;74;26286;-87
2022/07/25 05:40:10;;;;;;;1.20;1.20;;;;;;;;;;1884511;73;26262;-86
2022/07/25 05:42:37;;;;;;;1.20;1.20;;;;;;;;;;1875781;74;26329;-87
2022/07/25 05:45:05;;;;;;;1.20;1.20;;;;;;;;;;1900131;73;26240;-87
2022/07/25 05:47:32;;;;;;;1.30;1.30;;;;;;;;;;1895883;74;26236;-88
2022/07/25 05:49:59;;;;;;;1.30;1.30;;;;;;;;;;1882402;75;26175;-87
2022/07/25 05:52:26;;;;;;;1.40;1.40;;;;;;;;;;1881514;75;26264;-88
2022/07/25 05:54:54;;;;;;;1.40;1.40;;;;;;;;;;1895254;75;26660;-87
2022/07/25 05:57:21;;;;;;;1.20;1.20;;;;;;;;;;1891816;75;26181;-88
2022/07/25 05:59:48;;;;;;;1.37;1.37;;;;;;;;;;1884560;75;26174;-87
2022/07/25 06:02:16;;;;;;;1.40;1.40;;;;;;;;;;1891194;75;26196;-87
2022/07/25 06:04:43;;;;;;;1.40;1.40;;;;;;;;;;1874151;75;26304;-88
2022/07/25 06:07:11;;;;;;;1.40;1.40;;;;;;;;;;1885936;75;26348;-88
2022/07/25 06:09:38;;;;;;;1.20;1.20;;;;;;;;;;1879313;75;26183;-88
2022/07/25 06:12:06;;;;;;;1.20;1.20;;;;;;;;;;1882679;75;26516;-87
2022/07/25 06:14:33;;;;;;;1.42;1.42;;;;;;;;;;1886803;73;26624;-86
2022/07/25 06:17:00;;;;;;;1.35;1.35;;;;;;;;;;1867233;76;26183;-87
2022/07/25 06:19:28;;;;;;;1.35;1.35;;;;;;;;;;1882045;75;26166;-89
2022/07/25 06:21:55;;;;;;;1.35;1.35;;;;;;;;;;1890776;75;26200;-87
2022/07/25 06:24:22;;;;;;;1.45;1.45;;;;;;;;;;1881619;76;26208;-87
2022/07/25 06:26:50;;;;;;;1.42;1.42;;;;;;;;;;1878174;75;26629;-87
2022/07/25 06:29:17;;;;;;;1.45;1.45;;;;;;;;;;1876612;76;26186;-87
2022/07/25 06:31:44;;;;;;;1.45;1.45;;;;;;;;;;1885993;75;26238;-87
2022/07/25 06:34:11;;;;;;;1.50;1.50;;;;;;;;;;1878727;75;26167;-87
2022/07/25 06:36:39;;;;;;;1.42;1.42;;;;;;;;;;1875594;75;26206;-88
2022/07/25 06:39:06;;;;;;;1.60;1.60;;;;;;;;;;1881528;75;26195;-87
2022/07/25 06:41:35;;;;;;;1.50;1.50;;;;;;;;;;1895079;75;26283;-87
2022/07/25 06:44:03;;;;;;;1.40;1.40;;;;;;;;;;1895467;75;26698;-87
2022/07/25 06:46:31;;;;;;;1.60;1.60;;;;;;;;;;1876646;75;26219;-88
2022/07/25 06:48:58;;;;;;;1.37;1.37;;;;;;;;;;1887810;75;26193;-87
2022/07/25 06:51:26;;;;;;;1.37;1.37;;;;;;;;;;1869017;75;26268;-88
2022/07/25 06:53:53;;;;;;;1.60;1.60;;;;;;;;;;1867458;75;26214;-88
2022/07/25 06:56:20;;;;;;;1.60;1.60;;;;;;;;;;1869962;75;26687;-87
2022/07/25 06:58:48;;;;;;;1.60;1.60;;;;;;;;;;1874262;75;26192;-87
2022/07/25 07:01:15;;;;;;;1.62;1.62;;;;;;;;;;1883615;76;26199;-87
2022/07/25 07:03:42;;;;;;;1.60;1.50;;;;;;;;;;1873439;75;26246;-87
2022/07/25 07:06:09;;;;;;;1.60;1.60;;;;;;;;;;1873756;75;26260;-87
2022/07/25 07:08:37;;;;;;;1.60;1.60;;;;;;;;;;1869014;75;26202;-87
2022/07/25 07:11:05;;;;;;;1.52;1.52;;;;;;;;;;1873586;75;26206;-87
2022/07/25 07:13:32;;;;;;;1.30;1.30;;;;;;;;;;1893731;76;26203;-86
2022/07/25 07:16:00;;;;;;;1.42;1.42;;;;;;;;;;1888519;75;26624;-88
2022/07/25 07:18:27;;;;;;;1.70;1.70;;;;;;;;;;1884759;75;26173;-88
2022/07/25 07:20:54;;;;;;;1.60;1.60;;;;;;;;;;1882324;75;26223;-88
2022/07/25 07:23:22;;;;;;;1.85;1.85;;;;;;;;;;1876073;75;26231;-88
2022/07/25 07:25:49;;;;;;;1.42;1.42;;;;;;;;;;1890028;75;26183;-87
2022/07/25 07:28:16;;;;;;;1.60;1.60;;;;;;;;;;1886956;75;26305;-88
2022/07/25 07:30:44;;;;;;;1.60;1.60;;;;;;;;;;1878191;75;26183;-87
2022/07/25 07:33:11;;;;;;;1.70;1.70;;;;;;;;;;1868385;75;26276;-87
2022/07/25 07:35:39;;;;;;;1.72;1.70;;;;;;;;;;1894788;75;26183;-87
2022/07/25 07:38:06;;;;;;;1.80;1.80;;;;;;;;;;1897834;75;26726;-87
2022/07/25 07:40:33;;;;;;;1.80;1.80;;;;;;;;;;1882110;75;26727;-87
2022/07/25 07:43:02;;;;;;;1.67;1.57;;;;;;;;;;1884511;75;26188;-88
2022/07/25 07:45:30;;;;;;;1.70;1.70;;;;;;;;;;1886971;75;26204;-87
2022/07/25 07:47:58;;;;;;;2.00;1.90;;;;;;;;;;1883605;75;26277;-87
2022/07/25 07:50:26;;;;;;;1.70;1.70;;;;;;;;;;1900370;75;26185;-87
2022/07/25 07:52:54;;;;;;;1.65;1.65;;;;;;;;;;1875516;75;26339;-86
2022/07/25 07:58:07;;;;;;;1.70;1.70;;;;;;;;;;1889994;75;26605;-88
2022/07/25 08:00:38;;;;;;;1.80;1.80;;;;;;;;;;1888536;75;26151;-87
2022/07/25 08:03:07;;;;;;;1.95;1.95;;;;;;;;;;1895982;75;26612;-87
2022/07/25 08:05:36;;;;;;;1.80;1.80;;;;;;;;;;1889764;75;26597;-87
2022/07/25 08:08:04;;;;;;;1.80;1.80;;;;;;;;;;1863829;76;26335;-88
2022/07/25 08:10:33;;;;;;;1.92;1.92;;;;;;;;;;1883471;75;26167;-87
2022/07/25 08:13:01;;;;;;;1.80;1.80;;;;;;;;;;1869264;75;26298;-87
2022/07/25 08:15:28;;;;;;;1.60;1.60;;;;;;;;;;1860251;76;26222;-86
2022/07/25 08:17:55;;;;;;;1.80;1.80;;;;;;;;;;1894294;75;26330;-87
2022/07/25 08:20:22;;;;;;;1.70;1.70;;;;;;;;;;1882046;75;26265;-88
2022/07/25 08:22:50;;;;;;;1.70;1.70;;;;;;;;;;1878978;75;26178;-86
2022/07/25 08:25:19;;;;;;;1.80;1.80;;;;;;;;;;1883909;75;26184;-86
2022/07/25 08:27:46;;;;;;;2.20;2.10;;;;;;;;;;1887249;75;26636;-86
2022/07/25 08:30:14;;;;;;;1.72;1.72;;;;;;;;;;1884383;76;26182;-88
2022/07/25 08:32:52;;;;;;;1.95;1.92;;;;;;;;;;1879302;75;26780;-86
2022/07/25 08:35:20;;;;;;;1.85;1.85;;;;;;;;;;1885838;75;26164;-87
2022/07/25 08:37:48;;;;;;;2.05;1.95;;;;;;;;;;1896388;75;26216;-87
2022/07/25 08:40:16;;;;;;;1.75;1.75;;;;;;;;;;1881103;75;26195;-87
2022/07/25 08:42:43;;;;;;;1.80;1.80;;;;;;;;;;1882604;75;26211;-87
2022/07/25 08:45:19;;;;;;;2.02;1.92;;;;;;;;;;1893896;75;26203;-89
2022/07/25 08:47:43;;;;;;;2.00;1.90;;;;;;;;;;1886030;75;26195;-87
2022/07/25 08:50:12;;;;;;;1.62;1.60;;;;;;;;;;1868240;76;26218;-87
2022/07/25 08:52:39;;;;;;;2.00;1.90;;;;;;;;;;1892998;75;26195;-87
2022/07/25 08:55:08;;;;;;;2.05;1.95;;;;;;;;;;1895886;75;26220;-88
2022/07/25 08:57:37;;;;;;;2.00;1.90;;;;;;;;;;1867714;75;26257;-87
2022/07/25 09:00:05;;;;;;;1.80;1.80;;;;;;;;;;1874375;75;26179;-87
2022/07/25 09:02:32;;;;;;;2.00;2.00;;;;;;;;;;1875975;75;26604;-87
2022/07/25 09:04:59;;;;;;;1.90;1.90;;;;;;;;;;1876803;76;26261;-87
2022/07/25 09:07:33;;;;;;;2.20;2.10;;;;;;;;;;1877357;75;26253;-87
2022/07/25 09:10:19;;;;;;;2.10;2.00;;;;;;;;;;1896618;75;26192;-87
2022/07/25 09:12:53;;;;;;;2.00;2.00;;;;;;;;;;1877667;75;26190;-87
2022/07/25 09:15:28;;;;;;;1.85;1.85;;;;;;;;;;1868747;75;26631;-87
2022/07/25 09:17:57;;;;;;;1.70;1.70;;;;;;;;;;1895072;75;26299;-87
2022/07/25 09:20:25;;;;;;;1.80;1.80;;;;;;;;;;1896761;74;26697;-88
2022/07/25 09:22:53;;;;;;;1.82;1.82;;;;;;;;;;1889978;75;27181;-86
2022/07/25 09:25:22;;;;;;;2.00;2.00;;;;;;;;;;1900538;75;26712;-86
2022/07/25 09:27:49;;;;;;;2.00;2.00;;;;;;;;;;1895388;74;26653;-86
2022/07/25 09:30:16;;;;;;;2.10;2.10;;;;;;;;;;1886427;75;26203;-86
2022/07/25 09:32:43;;;;;;;1.82;1.82;;;;;;;;;;1884112;75;26231;-87
2022/07/25 09:35:11;;;;;;;1.80;1.80;;;;;;;;;;1886326;75;26822;-87
2022/07/25 09:37:38;;;;;;;1.82;1.82;;;;;;;;;;1888472;74;26262;-87
2022/07/25 09:40:14;;;;;;;2.00;2.00;;;;;;;;;;1887967;76;26239;-87
2022/07/25 09:42:44;;;;;;;1.80;1.80;;;;;;;;;;1879629;75;26781;-87
2022/07/25 09:45:11;;;;;;;2.00;2.00;;;;;;;;;;1883197;74;26703;-87
2022/07/25 09:47:40;;;;;;;1.92;1.92;;;;;;;;;;1870624;75;26690;-87
2022/07/25 09:50:08;;;;;;;2.08;2.08;;;;;;;;;;1883208;75;26307;-87
2022/07/25 09:52:37;;;;;;;1.92;1.92;;;;;;;;;;1877778;75;26187;-87
2022/07/25 09:55:05;;;;;;;2.10;2.00;;;;;;;;;;1874737;75;26280;-86
2022/07/25 09:57:32;;;;;;;1.95;1.95;;;;;;;;;;1864660;76;26207;-87
2022/07/25 10:00:00;;;;;;;2.17;2.08;;;;;;;;;;1875932;75;26302;-86
2022/07/25 10:02:34;;;;;;;2.15;2.05;;;;;;;;;;1896428;75;26249;-86
2022/07/25 10:05:09;;;;;;;1.80;1.80;;;;;;;;;;1885831;75;26210;-87
2022/07/25 10:07:37;;;;;;;2.05;1.95;;;;;;;;;;1886339;75;26314;-86
2022/07/25 10:10:05;;;;;;;2.00;2.00;;;;;;;;;;1882404;75;26210;-87
2022/07/25 10:12:33;;;;;;;1.90;1.90;;;;;;;;;;1887130;75;26167;-87
2022/07/25 10:15:04;;;;;;;2.20;2.10;;;;;;;;;;1889150;76;26285;-87
2022/07/25 10:17:32;;;;;;;2.00;2.00;;;;;;;;;;1890345;74;26189;-86
2022/07/25 10:20:00;;;;;;;1.95;1.95;;;;;;;;;;1897124;75;26203;-86
2022/07/25 10:22:37;;;;;;;2.00;2.00;;;;;;;;;;1881367;76;26674;-86
2022/07/25 10:25:08;;;;;;;1.87;1.87;;;;;;;;;;1884230;75;26298;-87
2022/07/25 10:27:37;;;;;;;2.00;2.00;;;;;;;;;;1890677;75;26239;-87
2022/07/25 10:30:06;;;;;;;1.98;1.98;;;;;;;;;;1886055;75;26219;-86
2022/07/25 10:32:34;;;;;;;1.90;1.90;;;;;;;;;;1878545;75;26198;-87
2022/07/25 10:35:03;;;;;;;1.90;1.90;;;;;;;;;;1885324;75;26242;-86
2022/07/25 10:37:32;;;;;;;1.90;1.90;;;;;;;;;;1876770;76;26266;-86
2022/07/25 10:39:59;;;;;;;2.10;2.00;;;;;;;;;;1891185;75;26200;-87
2022/07/25 10:42:28;;;;;;;1.80;1.80;;;;;;;;;;1899219;75;26238;-86
2022/07/25 10:44:56;;;;;;;2.08;2.00;;;;;;;;;;1866988;75;26230;-87
2022/07/25 10:47:25;;;;;;;1.90;1.90;;;;;;;;;;1889738;75;26321;-86
2022/07/25 10:49:59;;;;;;;1.85;1.85;;;;;;;;;;1882409;75;26230;-86
2022/07/25 10:52:29;;;;;;;2.00;2.00;;;;;;;;;;1887171;76;26232;-87
2022/07/25 10:54:57;;;;;;;1.90;1.90;;;;;;;;;;1879063;75;26224;-86
2022/07/25 10:57:25;;;;;;;1.80;1.80;;;;;;;;;;1879812;75;26216;-86
2022/07/25 10:59:52;;;;;;;2.00;2.00;;;;;;;;;;1888118;75;26260;-86
2022/07/25 11:02:20;;;;;;;2.27;2.17;;;;;;;;;;1879198;75;26203;-87
2022/07/25 11:05:00;;;;;;;1.90;1.90;;;;;;;;;;1878931;75;26252;-87
2022/07/25 11:07:34;;;;;;;1.90;1.90;;;;;;;;;;1876950;75;26203;-87
2022/07/25 11:09:58;;;;;;;2.05;2.05;;;;;;;;;;1888310;75;26188;-86
2022/07/25 11:12:26;;;;;;;2.10;2.10;;;;;;;;;;1895329;75;26701;-87
2022/07/25 11:14:57;;;;;;;1.98;1.98;;;;;;;;;;1890317;75;26308;-87
2022/07/25 11:17:25;;;;;;;1.92;1.92;;;;;;;;;;1885980;75;26200;-88
2022/07/25 11:20:00;;;;;;;2.27;2.17;;;;;;;;;;1877336;75;26866;-87
2022/07/25 11:22:28;;;;;;;1.80;1.80;;;;;;;;;;1878159;75;26552;-88
2022/07/25 11:24:56;;;;;;;2.27;2.22;;;;;;;;;;1885589;75;26212;-87
2022/07/25 11:27:25;;;;;;;1.87;1.87;;;;;;;;;;1896681;76;26676;-87
2022/07/25 11:29:52;;;;;;;2.20;2.10;;;;;;;;;;1870695;75;26631;-87
2022/07/25 11:32:20;;;;;;;1.90;1.90;;;;;;;;;;1873475;75;26191;-87
2022/07/25 11:34:48;;;;;;;1.90;1.90;;;;;;;;;;1881037;75;26640;-87
2022/07/25 11:37:15;;;;;;;2.02;2.00;;;;;;;;;;1877938;75;26268;-87
2022/07/25 11:39:44;;;;;;;1.87;1.87;;;;;;;;;;1894371;75;26632;-88
2022/07/25 11:42:15;;;;;;;2.00;2.00;;;;;;;;;;1896404;75;26196;-87
2022/07/25 11:44:46;;;;;;;2.17;2.00;;;;;;;;;;1887804;75;26698;-87
2022/07/25 11:47:30;;;;;;;2.10;2.00;;;;;;;;;;1882101;75;26286;-87
2022/07/25 11:49:58;;;;;;;2.30;2.20;;;;;;;;;;1881586;75;26257;-87
2022/07/25 11:52:30;;;;;;;2.12;2.02;;;;;;;;;;1886790;75;26304;-87
2022/07/25 11:54:59;;;;;;;2.20;2.10;;;;;;;;;;1876960;75;26204;-87
2022/07/25 11:57:28;;;;;;;2.30;2.20;;;;;;;;;;1888761;75;26252;-87
2022/07/25 11:59:56;;;;;;;1.98;1.98;;;;;;;;;;1874417;75;26739;-87
2022/07/25 12:02:25;;;;;;;2.20;2.20;;;;;;;;;;1891747;75;26529;-87
2022/07/25 12:04:56;;;;;;;2.00;2.00;;;;;;;;;;1877876;74;26646;-87
2022/07/25 12:07:43;;;;;;;2.10;2.00;;;;;;;;;;1871533;75;26789;-87
2022/07/25 12:10:12;;;;;;;2.25;2.15;;;;;;;;;;1889167;75;26305;-86
2022/07/25 12:12:43;;;;;;;2.20;2.10;;;;;;;;;;1896107;75;26168;-86
2022/07/25 12:15:12;;;;;;;2.10;2.10;;;;;;;;;;1894797;75;26210;-86
2022/07/25 12:17:40;;;;;;;2.30;2.20;;;;;;;;;;1871136;75;26184;-86
2022/07/25 12:20:12;;;;;;;2.25;2.15;;;;;;;;;;1893795;74;26272;-87
2022/07/25 12:22:39;;;;;;;2.10;2.00;;;;;;;;;;1897059;74;26303;-86
2022/07/25 12:25:07;;;;;;;2.30;2.20;;;;;;;;;;1894511;74;27222;-86
2022/07/25 12:27:34;;;;;;;2.20;2.20;;;;;;;;;;1888250;74;26252;-85
2022/07/25 12:30:01;;;;;;;2.37;2.27;;;;;;;;;;1890510;74;26246;-89
2022/07/25 12:32:29;;;;;;;2.20;2.10;;;;;;;;;;1889553;74;26382;-85
2022/07/25 12:34:57;;;;;;;2.40;2.30;;;;;;;;;;1889618;74;27137;-88
2022/07/25 12:37:25;;;;;;;2.37;2.27;;;;;;;;;;1886648;74;26248;-88
2022/07/25 12:39:53;;;;;;;2.10;2.10;;;;;;;;;;1893261;74;26660;-88
2022/07/25 12:42:21;;;;;;;2.30;2.22;;;;;;;;;;1893849;74;26182;-86
2022/07/25 12:44:48;;;;;;;2.30;2.20;;;;;;;;;;1891986;73;26258;-87
2022/07/25 12:47:16;;;;;;;2.20;2.10;;;;;;;;;;1886883;74;26295;-86
2022/07/25 12:49:43;;;;;;;2.10;2.10;;;;;;;;;;1895526;73;26695;-87
2022/07/25 12:52:10;;;;;;;2.15;2.05;;;;;;;;;;1894819;74;26632;-87
2022/07/25 12:54:38;;;;;;;2.15;2.15;;;;;;;;;;1896530;75;26253;-87
2022/07/25 12:57:05;;;;;;;2.27;2.20;;;;;;;;;;1890479;73;27010;-86
2022/07/25 12:59:32;;;;;;;2.40;2.30;;;;;;;;;;1890160;74;26773;-87
2022/07/25 13:01:59;;;;;;;2.10;2.10;;;;;;;;;;1887366;74;26234;-86
2022/07/25 13:04:27;;;;;;;2.10;2.00;;;;;;;;;;1888329;74;26155;-87
2022/07/25 13:06:55;;;;;;;2.30;2.20;;;;;;;;;;1893717;74;26962;-87
2022/07/25 13:09:23;;;;;;;2.33;2.12;;;;;;;;;;1890637;74;26596;-86
2022/07/25 13:11:50;;;;;;;2.30;2.10;;;;;;;;;;1890265;74;26222;-85
2022/07/25 13:14:17;;;;;;;2.20;2.10;;;;;;;;;;1892446;73;26274;-87
2022/07/25 13:16:45;;;;;;;2.40;2.30;;;;;;;;;;1890738;74;26162;-87
2022/07/25 13:19:13;;;;;;;2.12;2.10;;;;;;;;;;1889063;74;26222;-87
2022/07/25 13:21:41;;;;;;;2.20;2.10;;;;;;;;;;1894712;74;26196;-86
2022/07/25 13:24:08;;;;;;;2.55;2.45;;;;;;;;;;1898311;75;26203;-86
2022/07/25 13:26:36;;;;;;;2.30;2.20;;;;;;;;;;1883962;74;26652;-86
2022/07/25 13:29:07;;;;;;;2.37;2.27;;;;;;;;;;1882124;75;26215;-88
2022/07/25 13:31:34;;;;;;;2.10;2.02;;;;;;;;;;1899029;74;26734;-87
2022/07/25 13:34:02;;;;;;;1.98;1.98;;;;;;;;;;1887963;75;26268;-87
2022/07/25 13:36:29;;;;;;;2.10;2.10;;;;;;;;;;1890497;75;26280;-87
2022/07/25 13:38:56;;;;;;;2.20;2.10;;;;;;;;;;1887291;76;26192;-87
2022/07/25 13:41:24;;;;;;;2.30;2.20;;;;;;;;;;1895261;75;26205;-87
2022/07/25 13:43:51;;;;;;;1.98;1.98;;;;;;;;;;1895397;74;26287;-86
2022/07/25 13:46:18;;;;;;;2.12;2.10;;;;;;;;;;1898192;73;26180;-87
2022/07/25 13:48:45;;;;;;;2.00;2.00;;;;;;;;;;1890718;75;26156;-86
2022/07/25 13:51:13;;;;;;;2.00;2.00;;;;;;;;;;1878143;75;26207;-87
2022/07/25 13:53:40;;;;;;;2.00;2.00;;;;;;;;;;1885545;75;26176;-87
2022/07/25 13:56:08;;;;;;;2.10;2.00;;;;;;;;;;1887458;75;25505;-86
2022/07/25 13:58:35;;;;;;;2.05;2.02;;;;;;;;;;1891563;73;26186;-85
2022/07/25 14:01:02;;;;;;;1.85;1.85;;;;;;;;;;1894759;74;26261;-86
2022/07/25 14:03:29;;;;;;;2.20;2.10;;;;;;;;;;1898544;71;26206;-86
2022/07/25 14:05:57;;;;;;;1.87;1.87;;;;;;;;;;1893483;73;26239;-85
2022/07/25 14:08:25;;;;;;;1.90;1.90;;;;;;;;;;1894452;73;26183;-83
2022/07/25 14:10:53;;;;;;;2.08;2.08;;;;;;;;;;1894868;74;26213;-83
2022/07/25 14:13:20;;;;;;;2.30;2.20;;;;;;;;;;1883788;73;26208;-86
2022/07/25 14:15:47;;;;;;;2.40;2.30;;;;;;;;;;1885962;73;26320;-86
2022/07/25 14:18:14;;;;;;;2.10;2.00;;;;;;;;;;1886587;74;26205;-86
2022/07/25 14:20:43;;;;;;;2.00;2.00;;;;;;;;;;1868146;76;26211;-87
2022/07/25 14:23:10;;;;;;;1.90;1.90;;;;;;;;;;1884071;76;26653;-87
2022/07/25 14:25:37;;;;;;;2.05;2.05;;;;;;;;;;1881085;75;26662;-86
2022/07/25 14:28:05;;;;;;;1.80;1.80;;;;;;;;;;1880253;75;26186;-86
2022/07/25 14:30:32;;;;;;;1.98;1.98;;;;;;;;;;1876574;75;26178;-86
2022/07/25 14:32:59;;;;;;;2.00;2.00;;;;;;;;;;1889381;75;26717;-85
2022/07/25 14:35:27;;;;;;;2.10;2.00;;;;;;;;;;1898628;75;26219;-86
2022/07/25 14:37:54;;;;;;;2.10;2.00;;;;;;;;;;1891662;75;26260;-86
2022/07/25 14:40:21;;;;;;;1.85;1.85;;;;;;;;;;1888142;75;26669;-86
2022/07/25 14:42:48;;;;;;;2.00;2.00;;;;;;;;;;1892027;75;26213;-86
2022/07/25 14:45:17;;;;;;;1.98;1.98;;;;;;;;;;1893541;74;26335;-87
2022/07/25 14:47:45;;;;;;;2.02;2.02;;;;;;;;;;1891459;74;26617;-87
2022/07/25 14:50:12;;;;;;;2.20;2.10;;;;;;;;;;1892602;74;26207;-88